createdAt,value
2022-10-05T00:02:33.960Z,53.05
2022-10-05T00:05:30.208Z,59.65
2022-10-05T00:08:26.484Z,65.03
2022-10-05T00:11:17.087Z,57.75
2022-10-05T00:13:59.584Z,55.17
2022-10-05T00:16:48.532Z,55.38
2022-10-05T00:19:49.083Z,56.88
2022-10-05T00:22:41.015Z,60.13
2022-10-05T00:25:36.098Z,51.97
2022-10-05T00:28:44.403Z,57.28
2022-10-05T00:31:32.082Z,59.88
2022-10-05T00:34:14.308Z,64.38
2022-10-05T00:37:03.081Z,58.10
2022-10-05T00:39:51.985Z,63.83
2022-10-05T00:42:41.151Z,60.10
2022-10-05T00:45:30.432Z,64.30
2022-10-05T00:48:31.119Z,54.70
2022-10-05T00:51:29.075Z,70.45
2022-10-05T00:54:37.392Z,55.90
2022-10-05T00:58:02.057Z,62.20
2022-10-05T01:01:09.125Z,60.83
2022-10-05T01:04:23.399Z,58.28
2022-10-05T01:07:20.367Z,66.97
2022-10-05T01:10:18.068Z,57.13
2022-10-05T01:13:07.036Z,60.90
2022-10-05T01:16:06.152Z,62.90
2022-10-05T01:18:51.415Z,70.38
2022-10-05T01:21:49.145Z,63.42
2022-10-05T01:25:00.446Z,71.05
2022-10-05T01:28:12.145Z,64.85
2022-10-05T01:31:14.429Z,70.25
2022-10-05T01:34:14.071Z,61.33
2022-10-05T01:37:35.967Z,62.88
2022-10-05T01:40:32.102Z,66.35
2022-10-05T01:43:26.995Z,72.65
2022-10-05T01:47:00.118Z,73.50
2022-10-05T01:50:01.752Z,68.63
2022-10-05T01:53:24.155Z,78.53
2022-10-05T01:56:10.326Z,79.35
2022-10-05T01:59:16.099Z,62.08
2022-10-05T02:02:19.091Z,60.72
2022-10-05T02:05:28.067Z,66.30
2022-10-05T02:08:24.996Z,68.43
2022-10-05T02:11:18.071Z,64.90
2022-10-05T02:14:12.990Z,79.82
2022-10-05T02:17:07.066Z,69.47
2022-10-05T02:19:53.422Z,74.20
2022-10-05T02:22:52.090Z,75.28
2022-10-05T02:25:43.407Z,62.85
2022-10-05T02:28:47.081Z,75.47
2022-10-05T02:32:21.518Z,68.75
2022-10-05T02:35:15.141Z,82.43
2022-10-05T02:38:33.573Z,75.45
2022-10-05T02:41:40.075Z,65.15
2022-10-05T02:44:31.393Z,72.03
2022-10-05T02:47:56.090Z,67.15
2022-10-05T02:51:18.124Z,71.43
2022-10-05T02:54:26.087Z,67.95
2022-10-05T02:57:27.001Z,66.30
2022-10-05T03:00:27.101Z,65.45
2022-10-05T03:03:35.999Z,65.10
2022-10-05T03:06:34.105Z,70.13
2022-10-05T03:09:24.964Z,63.50
2022-10-05T03:12:52.076Z,70.43
2022-10-05T03:16:14.075Z,67.85
2022-10-05T03:19:21.102Z,58.33
2022-10-05T03:22:53.126Z,70.53
2022-10-05T03:26:19.334Z,69.85
2022-10-05T03:29:43.163Z,64.47
2022-10-05T03:32:52.356Z,58.83
2022-10-05T03:36:09.154Z,58.95
2022-10-05T03:39:37.583Z,58.75
2022-10-05T03:42:37.145Z,78.95
2022-10-05T03:45:41.367Z,68.78
2022-10-05T03:51:33.033Z,63.60
2022-10-05T03:54:44.104Z,74.88
2022-10-05T03:57:29.774Z,70.03
2022-10-05T04:00:27.072Z,68.65
2022-10-05T04:03:30.015Z,68.28
2022-10-05T04:06:35.073Z,79.55
2022-10-05T04:09:32.442Z,87.35
2022-10-05T04:12:28.080Z,72.40
2022-10-05T04:15:18.577Z,74.68
2022-10-05T04:18:46.129Z,69.47
2022-10-05T04:21:44.538Z,55.47
2022-10-05T04:25:17.089Z,50.40
2022-10-05T04:28:09.418Z,62.00
2022-10-05T04:31:01.147Z,49.38
2022-10-05T04:33:50.072Z,50.13
2022-10-05T04:36:44.889Z,51.08
2022-10-05T04:39:48.096Z,44.35
2022-10-05T04:43:20.364Z,33.65
2022-10-05T04:46:37.114Z,35.63
2022-10-05T04:49:34.074Z,32.15
2022-10-05T04:52:52.090Z,29.15
2022-10-05T04:56:01.073Z,40.25
2022-10-05T04:59:04.373Z,35.92
2022-10-05T05:02:03.193Z,32.42
2022-10-05T05:05:28.352Z,32.22
2022-10-05T05:08:35.118Z,24.90
2022-10-05T05:11:35.362Z,32.13
2022-10-05T05:14:27.096Z,21.38
2022-10-05T05:17:35.293Z,18.50
2022-10-05T05:20:54.454Z,24.48
2022-10-05T05:24:12.500Z,23.20
2022-10-05T05:26:55.136Z,32.85
2022-10-05T05:29:56.515Z,26.40
2022-10-05T05:32:47.061Z,24.77
2022-10-05T05:35:47.698Z,24.17
2022-10-05T05:38:46.090Z,31.30
2022-10-05T05:41:44.074Z,23.33
2022-10-05T05:44:39.657Z,26.17
2022-10-05T05:47:45.181Z,23.25
2022-10-05T05:50:46.461Z,22.08
2022-10-05T05:54:17.093Z,26.17
2022-10-05T05:57:21.431Z,27.40
2022-10-05T06:00:25.247Z,23.23
2022-10-05T06:03:33.955Z,34.28
2022-10-05T06:06:27.068Z,29.77
2022-10-05T06:09:29.086Z,21.88
2022-10-05T06:12:45.721Z,22.73
2022-10-05T06:15:48.138Z,17.00
2022-10-05T06:18:41.392Z,24.45
2022-10-05T06:21:34.475Z,27.48
2022-10-05T06:24:44.403Z,16.90
2022-10-05T06:27:47.135Z,20.27
2022-10-05T06:30:42.873Z,23.70
2022-10-05T06:34:00.082Z,19.55
2022-10-05T06:37:04.078Z,26.20
2022-10-05T06:40:10.098Z,21.98
2022-10-05T06:43:23.489Z,15.05
2022-10-05T06:46:33.188Z,26.10
2022-10-05T06:49:55.151Z,16.70
2022-10-05T06:53:30.231Z,17.90
2022-10-05T06:56:40.497Z,20.58
2022-10-05T06:59:48.146Z,23.10
2022-10-05T07:03:03.927Z,14.77
2022-10-05T07:06:20.083Z,20.23
2022-10-05T07:09:32.492Z,22.38
2022-10-05T07:12:48.073Z,18.50
2022-10-05T07:15:59.194Z,23.63
2022-10-05T07:19:22.371Z,22.38
2022-10-05T07:22:41.367Z,13.90
2022-10-05T07:25:29.378Z,27.38
2022-10-05T07:28:22.156Z,21.95
2022-10-05T07:31:32.427Z,25.17
2022-10-05T07:34:27.144Z,18.40
2022-10-05T07:37:52.990Z,20.85
2022-10-05T07:40:56.138Z,22.83
2022-10-05T07:44:02.394Z,24.08
2022-10-05T07:47:04.083Z,15.88
2022-10-05T07:49:59.895Z,23.27
2022-10-05T07:53:03.142Z,24.35
2022-10-05T07:55:53.539Z,18.40
2022-10-05T07:58:55.144Z,18.85
2022-10-05T08:01:43.167Z,26.65
2022-10-05T08:04:58.101Z,13.35
2022-10-05T08:07:47.366Z,15.55
2022-10-05T08:10:44.051Z,18.23
2022-10-05T08:13:44.380Z,19.60
2022-10-05T08:16:28.347Z,19.08
2022-10-05T08:19:41.380Z,18.13
2022-10-05T08:22:34.147Z,19.70
2022-10-05T08:25:34.515Z,13.73
2022-10-05T08:28:32.440Z,23.73
2022-10-05T08:31:41.454Z,20.98
2022-10-05T08:34:32.157Z,13.18
2022-10-05T08:37:33.382Z,18.42
2022-10-05T08:40:26.166Z,16.45
2022-10-05T08:43:38.407Z,25.05
2022-10-05T08:46:33.156Z,24.05
2022-10-05T08:49:46.091Z,14.88
2022-10-05T08:52:33.487Z,18.20
2022-10-05T08:55:49.140Z,16.33
2022-10-05T08:58:49.475Z,19.58
2022-10-05T09:02:05.172Z,17.40
2022-10-05T09:05:35.166Z,17.77
2022-10-05T09:08:35.618Z,16.20
2022-10-05T09:11:42.096Z,21.35
2022-10-05T09:15:23.808Z,17.38
2022-10-05T09:18:47.223Z,16.25
2022-10-05T09:21:53.029Z,20.80
2022-10-05T09:25:03.156Z,23.73
2022-10-05T09:28:01.086Z,17.67
2022-10-05T09:31:24.307Z,22.42
2022-10-05T09:34:09.336Z,23.65
2022-10-05T09:37:19.365Z,19.33
2022-10-05T09:40:16.497Z,20.70
2022-10-05T09:43:23.099Z,18.65
2022-10-05T09:46:05.311Z,16.70
2022-10-05T09:49:25.096Z,21.48
2022-10-05T09:53:01.134Z,15.05
2022-10-05T09:56:22.620Z,18.88
2022-10-05T09:59:15.069Z,23.02
2022-10-05T10:01:57.972Z,11.70
2022-10-05T10:04:47.093Z,14.68
2022-10-05T10:07:59.538Z,16.52
2022-10-05T10:10:51.125Z,16.67
2022-10-05T10:13:54.668Z,20.35
2022-10-05T10:16:58.078Z,16.17
2022-10-05T10:20:11.397Z,14.35
2022-10-05T10:23:21.191Z,19.20
2022-10-05T10:26:31.527Z,20.33
2022-10-05T10:29:34.149Z,15.63
2022-10-05T10:33:01.516Z,21.08
2022-10-05T10:35:53.148Z,20.08
2022-10-05T10:38:49.688Z,22.63
2022-10-05T10:42:01.096Z,16.92
2022-10-05T10:45:18.457Z,16.23
2022-10-05T10:48:15.192Z,18.20
2022-10-05T10:51:34.581Z,15.07
2022-10-05T10:54:31.080Z,22.27
2022-10-05T10:57:33.377Z,19.67
2022-10-05T11:00:43.062Z,24.58
2022-10-05T11:04:04.146Z,27.20
2022-10-05T11:07:10.381Z,24.42
2022-10-05T11:10:10.127Z,27.10
2022-10-05T11:13:13.450Z,20.98
2022-10-05T11:16:18.800Z,19.27
2022-10-05T11:19:35.201Z,25.42
2022-10-05T11:23:07.045Z,32.40
2022-10-05T11:26:10.172Z,27.95
2022-10-05T11:29:17.115Z,39.13
2022-10-05T11:32:07.748Z,22.13
2022-10-05T11:35:35.096Z,20.45
2022-10-05T11:38:49.056Z,19.30
2022-10-05T11:42:02.070Z,22.90
2022-10-05T11:45:24.184Z,24.85
2022-10-05T11:48:07.674Z,24.88
2022-10-05T11:51:16.496Z,19.80
2022-10-05T11:54:52.081Z,22.23
2022-10-05T11:57:59.069Z,24.25
2022-10-05T12:00:58.191Z,18.23
2022-10-05T12:04:17.560Z,20.20
2022-10-05T12:07:31.047Z,21.20
2022-10-05T12:10:40.145Z,19.70
2022-10-05T12:13:31.593Z,20.17
2022-10-05T12:16:52.145Z,19.00
2022-10-05T12:19:47.584Z,21.15
2022-10-05T12:22:45.064Z,27.40
2022-10-05T12:26:00.090Z,27.65
2022-10-05T12:29:00.487Z,29.30
2022-10-05T12:31:48.182Z,35.15
2022-10-05T12:35:06.544Z,19.15
2022-10-05T12:38:03.149Z,26.00
2022-10-05T12:40:57.888Z,29.40
2022-10-05T12:44:10.219Z,27.60
2022-10-05T12:47:21.642Z,20.15
2022-10-05T12:50:24.132Z,23.45
2022-10-05T12:53:31.984Z,34.47
2022-10-05T12:56:25.142Z,30.17
2022-10-05T12:59:35.154Z,32.30
2022-10-05T13:02:24.797Z,27.37
2022-10-05T13:05:20.135Z,31.88
2022-10-05T13:08:23.740Z,38.80
2022-10-05T13:11:36.105Z,36.50
2022-10-05T13:17:42.550Z,38.65
2022-10-05T13:20:59.013Z,35.03
2022-10-05T13:24:02.190Z,50.90
2022-10-05T13:26:56.135Z,33.95
2022-10-05T13:30:01.056Z,35.15
2022-10-05T13:32:49.192Z,41.78
2022-10-05T13:36:08.689Z,29.15
2022-10-05T13:39:22.152Z,43.67
2022-10-05T13:42:14.506Z,40.70
2022-10-05T13:45:08.213Z,47.40
2022-10-05T13:48:34.804Z,33.55
2022-10-05T13:51:26.052Z,45.17
2022-10-05T13:54:34.029Z,33.22
2022-10-05T13:58:00.161Z,51.97
2022-10-05T14:01:20.208Z,33.70
2022-10-05T14:04:32.173Z,44.72
2022-10-05T14:07:36.146Z,50.78
2022-10-05T14:10:30.480Z,40.72
2022-10-05T14:13:21.516Z,35.83
2022-10-05T14:16:28.968Z,43.03
2022-10-05T14:19:28.670Z,40.35
2022-10-05T14:22:30.074Z,34.13
2022-10-05T14:25:20.999Z,41.20
2022-10-05T14:28:04.500Z,49.25
2022-10-05T14:31:10.533Z,42.33
2022-10-05T14:33:54.919Z,42.63
2022-10-05T14:36:45.104Z,49.65
2022-10-05T14:39:40.211Z,41.47
2022-10-05T14:42:51.531Z,47.13
2022-10-05T14:45:38.256Z,45.90
2022-10-05T14:48:20.486Z,47.78
2022-10-05T14:51:13.227Z,43.72
2022-10-05T14:54:11.749Z,38.45
2022-10-05T14:57:03.220Z,42.25
2022-10-05T15:00:02.073Z,48.22
2022-10-05T15:03:07.190Z,37.08
2022-10-05T15:06:11.231Z,30.05
2022-10-05T15:09:17.285Z,46.10
2022-10-05T15:12:10.119Z,34.88
2022-10-05T15:14:54.508Z,37.13
2022-10-05T15:17:53.137Z,30.70
2022-10-05T15:20:57.435Z,36.50
2022-10-05T15:24:03.212Z,48.60
2022-10-05T15:26:58.632Z,42.55
2022-10-05T15:30:03.152Z,34.40
2022-10-05T15:33:14.136Z,31.02
2022-10-05T15:36:14.713Z,35.42
2022-10-05T15:39:34.485Z,33.78
2022-10-05T15:42:21.110Z,36.88
2022-10-05T15:45:40.915Z,42.95
2022-10-05T15:48:50.468Z,45.83
2022-10-05T15:51:35.201Z,42.00
2022-10-05T15:54:45.095Z,41.08
2022-10-05T15:58:19.278Z,41.33
2022-10-05T16:01:30.478Z,47.10
2022-10-05T16:04:29.109Z,39.05
2022-10-05T16:07:48.791Z,36.22
2022-10-05T16:10:40.157Z,38.35
2022-10-05T16:13:56.049Z,42.65
2022-10-05T16:17:17.156Z,36.22
2022-10-05T16:20:36.901Z,37.88
2022-10-05T16:23:29.161Z,45.70
2022-10-05T16:26:46.187Z,39.40
2022-10-05T16:30:01.112Z,45.35
2022-10-05T16:33:14.125Z,49.38
2022-10-05T16:36:37.534Z,49.25
2022-10-05T16:40:06.128Z,45.38
2022-10-05T16:43:14.439Z,38.85
2022-10-05T16:46:27.674Z,40.80
2022-10-05T16:49:49.354Z,45.70
2022-10-05T16:52:40.284Z,39.67
2022-10-05T16:55:49.944Z,42.38
2022-10-05T16:58:58.121Z,40.15
2022-10-05T17:01:50.287Z,41.40
2022-10-05T17:05:07.134Z,35.55
2022-10-05T17:08:22.690Z,37.35
2022-10-05T17:11:16.008Z,41.40
2022-10-05T17:14:21.563Z,43.47
2022-10-05T17:17:06.261Z,44.00
2022-10-05T17:20:03.492Z,46.25
2022-10-05T17:23:07.131Z,41.92
2022-10-05T17:26:03.461Z,42.63
2022-10-05T17:28:54.104Z,48.10
2022-10-05T17:32:14.566Z,37.50
2022-10-05T17:35:15.957Z,39.47
2022-10-05T17:38:23.317Z,45.38
2022-10-05T17:41:08.540Z,43.42
2022-10-05T17:44:28.473Z,43.00
2022-10-05T17:47:12.348Z,33.33
2022-10-05T17:50:46.241Z,40.78
2022-10-05T17:54:00.675Z,42.17
2022-10-05T17:56:56.148Z,40.15
2022-10-05T18:00:05.491Z,35.42
2022-10-05T18:02:56.301Z,44.78
2022-10-05T18:05:44.444Z,29.83
2022-10-05T18:08:33.274Z,40.33
2022-10-05T18:11:37.778Z,41.95
2022-10-05T18:14:34.058Z,42.45
2022-10-05T18:17:43.092Z,34.58
2022-10-05T18:20:35.033Z,36.63
2022-10-05T18:23:33.184Z,39.08
2022-10-05T18:26:33.396Z,44.03
2022-10-05T18:30:13.138Z,35.75
2022-10-05T18:33:28.269Z,33.70
2022-10-05T18:36:37.939Z,43.45
2022-10-05T18:39:26.530Z,37.45
2022-10-05T18:42:49.063Z,33.25
2022-10-05T18:45:45.388Z,35.72
2022-10-05T18:48:39.052Z,41.72
2022-10-05T18:51:56.054Z,37.88
2022-10-05T18:55:17.052Z,36.63
2022-10-05T18:58:15.028Z,39.28
2022-10-05T19:00:57.706Z,38.72
2022-10-05T19:03:57.069Z,42.60
2022-10-05T19:06:59.044Z,36.80
2022-10-05T19:10:16.041Z,37.42
2022-10-05T19:13:29.225Z,38.75
2022-10-05T19:16:31.421Z,35.53
2022-10-05T19:19:34.067Z,41.38
2022-10-05T19:22:53.307Z,33.20
2022-10-05T19:25:47.184Z,37.60
2022-10-05T19:28:40.035Z,33.65
2022-10-05T19:31:50.045Z,41.13
2022-10-05T19:34:56.062Z,43.35
2022-10-05T19:38:15.686Z,32.20
2022-10-05T19:41:11.359Z,32.97
2022-10-05T19:44:14.048Z,33.75
2022-10-05T19:47:02.178Z,29.77
2022-10-05T19:50:04.040Z,35.33
2022-10-05T19:52:53.393Z,32.13
2022-10-05T19:55:59.033Z,32.08
2022-10-05T19:58:48.309Z,31.55
2022-10-05T20:01:32.524Z,28.95
2022-10-05T20:04:27.885Z,36.28
2022-10-05T20:07:25.052Z,35.97
2022-10-05T20:10:30.679Z,31.17
2022-10-05T20:13:31.027Z,35.60
2022-10-05T20:16:47.934Z,38.60
2022-10-05T20:20:03.062Z,33.13
2022-10-05T20:22:48.336Z,37.50
2022-10-05T20:25:40.123Z,38.08
2022-10-05T20:28:38.396Z,33.72
2022-10-05T20:31:28.141Z,38.63
2022-10-05T20:34:10.329Z,30.65
2022-10-05T20:37:00.086Z,38.03
2022-10-05T20:39:42.633Z,37.65
2022-10-05T20:42:31.029Z,38.38
2022-10-05T20:45:19.960Z,32.63
2022-10-05T20:48:10.047Z,33.72
2022-10-05T20:50:52.678Z,33.35
2022-10-05T20:53:42.095Z,35.05
2022-10-05T20:56:27.967Z,32.90
2022-10-05T20:59:17.094Z,34.35
2022-10-05T21:02:00.538Z,37.20
2022-10-05T21:04:58.043Z,27.88
2022-10-05T21:07:41.900Z,35.30
2022-10-05T21:10:30.999Z,29.33
2022-10-05T21:13:19.999Z,27.75
2022-10-05T21:16:02.337Z,30.58
2022-10-05T21:18:54.007Z,30.33
2022-10-05T21:21:42.909Z,32.17
2022-10-05T21:24:34.081Z,30.42
2022-10-05T21:27:17.829Z,27.23
2022-10-05T21:30:06.990Z,30.92
2022-10-05T21:32:55.914Z,27.83
2022-10-05T21:35:45.044Z,24.60
2022-10-05T21:38:29.360Z,28.45
2022-10-05T21:41:19.054Z,28.70
2022-10-05T21:44:01.472Z,27.20
2022-10-05T21:46:50.093Z,28.30
2022-10-05T21:49:33.305Z,32.95
2022-10-05T21:52:22.083Z,23.58
2022-10-05T21:55:04.309Z,26.30
2022-10-05T21:58:05.095Z,29.02
2022-10-05T22:00:47.465Z,28.02
2022-10-05T22:03:36.071Z,28.50
2022-10-05T22:06:24.341Z,33.50
2022-10-05T22:09:07.011Z,26.00
2022-10-05T22:11:56.387Z,24.63
2022-10-05T22:14:40.088Z,28.98
2022-10-05T22:17:37.244Z,30.63
2022-10-05T22:20:22.029Z,28.20
2022-10-05T22:23:10.844Z,27.83
2022-10-05T22:25:55.033Z,27.70
2022-10-05T22:28:45.372Z,27.00
2022-10-05T22:31:28.142Z,28.02
2022-10-05T22:34:16.380Z,26.88
2022-10-05T22:36:59.090Z,25.58
2022-10-05T22:39:49.308Z,26.90
2022-10-05T22:42:32.028Z,27.48
2022-10-05T22:45:21.944Z,26.45
2022-10-05T22:48:11.003Z,25.25
2022-10-05T22:50:59.959Z,33.17
2022-10-05T22:53:50.014Z,26.23
2022-10-05T22:56:38.320Z,25.35
2022-10-05T22:59:21.040Z,29.42
2022-10-05T23:02:09.961Z,33.42
2022-10-05T23:04:59.061Z,43.30
2022-10-05T23:07:50.337Z,27.05
2022-10-05T23:10:34.432Z,31.35
2022-10-05T23:13:23.627Z,30.83
2022-10-05T23:16:05.919Z,27.35
2022-10-05T23:19:00.206Z,30.73
2022-10-05T23:24:30.292Z,28.75
2022-10-05T23:27:13.060Z,31.08
2022-10-05T23:30:01.303Z,33.15
2022-10-05T23:32:52.023Z,30.33
2022-10-05T23:35:40.320Z,27.23
2022-10-05T23:38:23.082Z,25.30
2022-10-05T23:41:13.354Z,30.13
2022-10-05T23:47:07.328Z,28.90
2022-10-05T23:49:49.062Z,31.00
2022-10-05T23:52:37.308Z,28.05
2022-10-05T23:55:19.049Z,33.88
2022-10-05T23:58:07.303Z,30.90
